sensor_id;sensor_type;location;lat;lon;timestamp;pressure;altitude;pressure_sealevel;temperature;humidity
21203;BME280;10759;51.982;9.232;2023-07-31T00:01:02;99825.41;;;16.35;100.00
21203;BME280;10759;51.982;9.232;2023-07-31T00:03:30;99811.56;;;16.27;100.00
21203;BME280;10759;51.982;9.232;2023-07-31T00:05:58;99777.06;;;16.05;100.00
21203;BME280;10759;51.982;9.232;2023-07-31T00:08:26;99827.97;;;16.24;100.00
21203;BME280;10759;51.982;9.232;2023-07-31T00:10:54;99706.63;;;15.55;100.00
21203;BME280;10759;51.982;9.232;2023-07-31T00:13:23;99724.03;;;15.64;100.00
21203;BME280;10759;51.982;9.232;2023-07-31T00:15:51;99750.06;;;15.65;100.00
21203;BME280;10759;51.982;9.232;2023-07-31T00:18:20;99811.75;;;15.98;100.00
21203;BME280;10759;51.982;9.232;2023-07-31T00:20:48;99785.81;;;15.96;100.00
21203;BME280;10759;51.982;9.232;2023-07-31T00:23:16;99692.47;;;15.39;100.00
21203;BME280;10759;51.982;9.232;2023-07-31T00:25:44;99735.38;;;15.56;100.00
21203;BME280;10759;51.982;9.232;2023-07-31T00:28:12;99813.91;;;16.06;100.00
21203;BME280;10759;51.982;9.232;2023-07-31T00:30:41;99816.75;;;16.17;100.00
21203;BME280;10759;51.982;9.232;2023-07-31T00:33:12;99802.66;;;15.99;100.00
21203;BME280;10759;51.982;9.232;2023-07-31T00:35:40;99793.25;;;15.92;100.00
21203;BME280;10759;51.982;9.232;2023-07-31T00:38:10;99796.09;;;16.03;100.00
21203;BME280;10759;51.982;9.232;2023-07-31T00:40:39;99794.38;;;16.02;100.00
21203;BME280;10759;51.982;9.232;2023-07-31T00:43:09;99793.16;;;16.06;100.00
21203;BME280;10759;51.982;9.232;2023-07-31T00:45:37;99771.09;;;15.87;100.00
21203;BME280;10759;51.982;9.232;2023-07-31T00:48:06;99787.00;;;15.92;100.00
21203;BME280;10759;51.982;9.232;2023-07-31T00:50:35;99773.69;;;15.88;100.00
21203;BME280;10759;51.982;9.232;2023-07-31T00:53:03;99773.47;;;15.92;100.00
21203;BME280;10759;51.982;9.232;2023-07-31T00:55:34;99777.16;;;16.03;100.00
21203;BME280;10759;51.982;9.232;2023-07-31T00:58:05;99773.28;;;16.07;100.00
21203;BME280;10759;51.982;9.232;2023-07-31T01:00:33;99767.44;;;16.14;100.00
21203;BME280;10759;51.982;9.232;2023-07-31T01:03:02;99765.41;;;16.17;100.00
21203;BME280;10759;51.982;9.232;2023-07-31T01:05:43;99747.22;;;16.06;100.00
21203;BME280;10759;51.982;9.232;2023-07-31T01:08:31;99759.44;;;16.25;100.00
21203;BME280;10759;51.982;9.232;2023-07-31T01:11:09;99749.06;;;16.19;100.00
21203;BME280;10759;51.982;9.232;2023-07-31T01:13:40;99702.16;;;15.81;100.00
21203;BME280;10759;51.982;9.232;2023-07-31T01:16:10;99749.59;;;16.24;100.00
21203;BME280;10759;51.982;9.232;2023-07-31T01:18:42;99728.53;;;16.03;100.00
21203;BME280;10759;51.982;9.232;2023-07-31T01:21:36;99755.44;;;16.18;100.00
21203;BME280;10759;51.982;9.232;2023-07-31T01:24:27;99756.19;;;16.20;100.00
21203;BME280;10759;51.982;9.232;2023-07-31T01:27:05;99754.22;;;16.22;100.00
21203;BME280;10759;51.982;9.232;2023-07-31T01:29:39;99754.66;;;16.28;100.00
21203;BME280;10759;51.982;9.232;2023-07-31T01:32:12;99751.88;;;16.30;100.00
21203;BME280;10759;51.982;9.232;2023-07-31T01:34:41;99743.22;;;16.25;100.00
21203;BME280;10759;51.982;9.232;2023-07-31T01:37:09;99678.59;;;15.96;100.00
21203;BME280;10759;51.982;9.232;2023-07-31T01:39:37;99694.16;;;16.05;100.00
21203;BME280;10759;51.982;9.232;2023-07-31T01:42:08;99733.69;;;16.19;100.00
21203;BME280;10759;51.982;9.232;2023-07-31T01:44:36;99733.50;;;16.22;100.00
21203;BME280;10759;51.982;9.232;2023-07-31T01:47:05;99682.59;;;16.03;100.00
21203;BME280;10759;51.982;9.232;2023-07-31T01:49:33;99722.25;;;16.16;100.00
21203;BME280;10759;51.982;9.232;2023-07-31T01:52:02;99720.19;;;16.06;100.00
21203;BME280;10759;51.982;9.232;2023-07-31T01:54:30;99660.13;;;15.77;100.00
21203;BME280;10759;51.982;9.232;2023-07-31T01:56:58;99718.91;;;16.25;100.00
21203;BME280;10759;51.982;9.232;2023-07-31T01:59:28;99673.63;;;16.03;100.00
21203;BME280;10759;51.982;9.232;2023-07-31T02:01:56;99719.44;;;16.30;100.00
21203;BME280;10759;51.982;9.232;2023-07-31T02:04:29;99719.75;;;16.25;100.00
21203;BME280;10759;51.982;9.232;2023-07-31T02:06:57;99659.34;;;16.01;100.00
21203;BME280;10759;51.982;9.232;2023-07-31T02:09:25;99717.47;;;16.32;100.00
21203;BME280;10759;51.982;9.232;2023-07-31T02:11:54;99718.97;;;16.36;100.00
21203;BME280;10759;51.982;9.232;2023-07-31T02:14:22;99716.78;;;16.41;100.00
21203;BME280;10759;51.982;9.232;2023-07-31T02:16:52;99718.41;;;16.44;100.00
21203;BME280;10759;51.982;9.232;2023-07-31T02:19:20;99717.03;;;16.38;100.00
21203;BME280;10759;51.982;9.232;2023-07-31T02:21:54;99714.75;;;16.45;100.00
21203;BME280;10759;51.982;9.232;2023-07-31T02:24:22;99719.41;;;16.43;100.00
21203;BME280;10759;51.982;9.232;2023-07-31T02:26:50;99718.88;;;16.38;100.00
21203;BME280;10759;51.982;9.232;2023-07-31T02:29:21;99699.97;;;16.25;100.00
21203;BME280;10759;51.982;9.232;2023-07-31T02:31:49;99719.41;;;16.43;100.00
21203;BME280;10759;51.982;9.232;2023-07-31T02:34:21;99635.25;;;15.85;100.00
21203;BME280;10759;51.982;9.232;2023-07-31T02:36:49;99712.28;;;16.29;100.00
21203;BME280;10759;51.982;9.232;2023-07-31T02:39:20;99722.44;;;16.38;100.00
21203;BME280;10759;51.982;9.232;2023-07-31T02:41:48;99707.63;;;16.31;100.00
21203;BME280;10759;51.982;9.232;2023-07-31T02:44:16;99708.16;;;16.36;100.00
21203;BME280;10759;51.982;9.232;2023-07-31T02:46:47;99709.56;;;16.29;100.00
21203;BME280;10759;51.982;9.232;2023-07-31T02:49:16;99711.22;;;16.19;100.00
21203;BME280;10759;51.982;9.232;2023-07-31T02:51:45;99702.03;;;16.08;100.00
21203;BME280;10759;51.982;9.232;2023-07-31T02:54:13;99701.59;;;16.02;100.00
21203;BME280;10759;51.982;9.232;2023-07-31T02:56:41;99702.06;;;15.96;100.00
21203;BME280;10759;51.982;9.232;2023-07-31T02:59:09;99703.22;;;16.04;100.00
21203;BME280;10759;51.982;9.232;2023-07-31T03:01:37;99594.00;;;15.32;100.00
21203;BME280;10759;51.982;9.232;2023-07-31T03:04:05;99695.34;;;16.01;100.00
21203;BME280;10759;51.982;9.232;2023-07-31T03:06:33;99697.38;;;15.85;100.00
21203;BME280;10759;51.982;9.232;2023-07-31T03:09:03;99655.66;;;15.38;100.00
21203;BME280;10759;51.982;9.232;2023-07-31T03:11:30;99600.00;;;14.97;100.00
21203;BME280;10759;51.982;9.232;2023-07-31T03:14:00;99679.84;;;15.52;100.00
21203;BME280;10759;51.982;9.232;2023-07-31T03:16:28;99676.84;;;15.44;100.00
21203;BME280;10759;51.982;9.232;2023-07-31T03:19:06;99693.34;;;15.52;100.00
21203;BME280;10759;51.982;9.232;2023-07-31T03:21:34;99646.34;;;15.16;100.00
21203;BME280;10759;51.982;9.232;2023-07-31T03:24:04;99618.59;;;15.01;100.00
21203;BME280;10759;51.982;9.232;2023-07-31T03:26:32;99599.88;;;14.98;100.00
21203;BME280;10759;51.982;9.232;2023-07-31T03:29:01;99689.78;;;15.39;100.00
21203;BME280;10759;51.982;9.232;2023-07-31T03:31:34;99679.16;;;15.23;100.00
21203;BME280;10759;51.982;9.232;2023-07-31T03:34:02;99693.03;;;15.44;100.00
21203;BME280;10759;51.982;9.232;2023-07-31T03:36:30;99692.13;;;15.31;100.00
21203;BME280;10759;51.982;9.232;2023-07-31T03:39:13;99668.78;;;15.17;100.00
21203;BME280;10759;51.982;9.232;2023-07-31T03:41:41;99640.25;;;15.00;100.00
21203;BME280;10759;51.982;9.232;2023-07-31T03:44:12;99623.75;;;14.92;100.00
21203;BME280;10759;51.982;9.232;2023-07-31T03:46:40;99674.84;;;15.20;100.00
21203;BME280;10759;51.982;9.232;2023-07-31T03:49:10;99642.44;;;15.08;100.00
21203;BME280;10759;51.982;9.232;2023-07-31T03:51:38;99680.91;;;15.37;100.00
21203;BME280;10759;51.982;9.232;2023-07-31T03:54:06;99685.69;;;15.46;100.00
21203;BME280;10759;51.982;9.232;2023-07-31T03:56:49;99685.16;;;15.66;100.00
21203;BME280;10759;51.982;9.232;2023-07-31T03:59:17;99690.28;;;15.71;100.00
21203;BME280;10759;51.982;9.232;2023-07-31T04:01:45;99683.78;;;15.74;100.00
21203;BME280;10759;51.982;9.232;2023-07-31T04:04:13;99507.19;;;14.74;100.00
21203;BME280;10759;51.982;9.232;2023-07-31T04:06:41;99678.47;;;15.85;100.00
21203;BME280;10759;51.982;9.232;2023-07-31T04:09:09;99671.47;;;15.95;100.00
21203;BME280;10759;51.982;9.232;2023-07-31T04:11:37;99662.63;;;15.93;100.00
21203;BME280;10759;51.982;9.232;2023-07-31T04:14:10;99656.75;;;15.99;100.00
21203;BME280;10759;51.982;9.232;2023-07-31T04:16:38;99682.13;;;16.09;100.00
21203;BME280;10759;51.982;9.232;2023-07-31T04:19:06;99669.94;;;16.04;100.00
21203;BME280;10759;51.982;9.232;2023-07-31T04:21:38;99674.78;;;16.12;100.00
21203;BME280;10759;51.982;9.232;2023-07-31T04:24:06;99683.94;;;16.22;100.00
21203;BME280;10759;51.982;9.232;2023-07-31T04:26:34;99680.63;;;16.18;100.00
21203;BME280;10759;51.982;9.232;2023-07-31T04:29:03;99675.13;;;16.20;100.00
21203;BME280;10759;51.982;9.232;2023-07-31T04:31:33;99678.13;;;16.28;100.00
21203;BME280;10759;51.982;9.232;2023-07-31T04:34:05;99669.69;;;16.33;100.00
21203;BME280;10759;51.982;9.232;2023-07-31T04:36:35;99675.19;;;16.31;100.00
21203;BME280;10759;51.982;9.232;2023-07-31T04:39:04;99672.94;;;16.25;100.00
21203;BME280;10759;51.982;9.232;2023-07-31T04:41:32;99685.03;;;16.32;100.00
21203;BME280;10759;51.982;9.232;2023-07-31T04:44:00;99654.38;;;16.07;100.00
21203;BME280;10759;51.982;9.232;2023-07-31T04:46:28;99675.50;;;16.39;100.00
21203;BME280;10759;51.982;9.232;2023-07-31T04:48:57;99662.31;;;16.22;100.00
21203;BME280;10759;51.982;9.232;2023-07-31T04:51:25;99679.72;;;16.30;100.00
21203;BME280;10759;51.982;9.232;2023-07-31T04:53:53;99666.25;;;16.18;100.00
21203;BME280;10759;51.982;9.232;2023-07-31T04:56:21;99680.06;;;16.26;100.00
21203;BME280;10759;51.982;9.232;2023-07-31T04:58:49;99676.84;;;16.21;100.00
21203;BME280;10759;51.982;9.232;2023-07-31T05:01:17;99681.81;;;16.27;100.00
21203;BME280;10759;51.982;9.232;2023-07-31T05:03:45;99675.13;;;16.20;100.00
21203;BME280;10759;51.982;9.232;2023-07-31T05:06:15;99601.91;;;15.73;100.00
21203;BME280;10759;51.982;9.232;2023-07-31T05:08:43;99588.25;;;15.62;100.00
21203;BME280;10759;51.982;9.232;2023-07-31T05:11:16;99683.34;;;16.05;100.00
21203;BME280;10759;51.982;9.232;2023-07-31T05:13:49;99687.88;;;16.18;100.00
21203;BME280;10759;51.982;9.232;2023-07-31T05:16:17;99675.75;;;16.23;100.00
21203;BME280;10759;51.982;9.232;2023-07-31T05:18:44;99692.19;;;16.20;100.00
21203;BME280;10759;51.982;9.232;2023-07-31T05:21:12;99687.22;;;16.27;100.00
21203;BME280;10759;51.982;9.232;2023-07-31T05:23:42;99683.94;;;16.22;100.00
21203;BME280;10759;51.982;9.232;2023-07-31T05:26:10;99689.69;;;16.30;100.00
21203;BME280;10759;51.982;9.232;2023-07-31T05:28:40;99682.00;;;16.24;100.00
21203;BME280;10759;51.982;9.232;2023-07-31T05:31:10;99586.66;;;15.72;100.00
21203;BME280;10759;51.982;9.232;2023-07-31T05:33:41;99681.16;;;16.23;100.00
21203;BME280;10759;51.982;9.232;2023-07-31T05:36:12;99684.28;;;16.30;100.00
21203;BME280;10759;51.982;9.232;2023-07-31T05:38:40;99681.34;;;16.33;100.00
21203;BME280;10759;51.982;9.232;2023-07-31T05:41:11;99673.56;;;16.28;100.00
21203;BME280;10759;51.982;9.232;2023-07-31T05:43:39;99669.91;;;16.29;100.00
21203;BME280;10759;51.982;9.232;2023-07-31T05:46:07;99674.41;;;16.42;100.00
21203;BME280;10759;51.982;9.232;2023-07-31T05:48:38;99674.75;;;16.61;100.00
21203;BME280;10759;51.982;9.232;2023-07-31T05:51:06;99651.09;;;16.28;100.00
21203;BME280;10759;51.982;9.232;2023-07-31T05:53:34;99675.41;;;16.28;100.00
21203;BME280;10759;51.982;9.232;2023-07-31T05:56:07;99630.50;;;16.01;100.00
21203;BME280;10759;51.982;9.232;2023-07-31T05:58:39;99670.44;;;16.35;100.00
21203;BME280;10759;51.982;9.232;2023-07-31T06:01:07;99665.78;;;16.37;100.00
21203;BME280;10759;51.982;9.232;2023-07-31T06:03:39;99668.50;;;16.37;100.00
21203;BME280;10759;51.982;9.232;2023-07-31T06:06:08;99613.16;;;16.17;100.00
21203;BME280;10759;51.982;9.232;2023-07-31T06:08:37;99658.16;;;16.55;100.00
21203;BME280;10759;51.982;9.232;2023-07-31T06:11:08;99663.59;;;16.42;100.00
21203;BME280;10759;51.982;9.232;2023-07-31T06:13:36;99671.66;;;16.55;100.00
21203;BME280;10759;51.982;9.232;2023-07-31T06:16:07;99663.41;;;16.69;100.00
21203;BME280;10759;51.982;9.232;2023-07-31T06:18:35;99645.16;;;16.60;100.00
21203;BME280;10759;51.982;9.232;2023-07-31T06:21:08;99660.91;;;16.79;100.00
21203;BME280;10759;51.982;9.232;2023-07-31T06:23:38;99660.69;;;16.93;100.00
21203;BME280;10759;51.982;9.232;2023-07-31T06:26:06;99661.44;;;16.95;100.00
21203;BME280;10759;51.982;9.232;2023-07-31T06:28:34;99659.16;;;17.02;100.00
21203;BME280;10759;51.982;9.232;2023-07-31T06:31:02;99619.22;;;16.81;100.00
21203;BME280;10759;51.982;9.232;2023-07-31T06:33:32;99656.44;;;17.02;100.00
21203;BME280;10759;51.982;9.232;2023-07-31T06:36:00;99657.44;;;17.01;100.00
21203;BME280;10759;51.982;9.232;2023-07-31T06:38:28;99670.25;;;17.10;100.00
21203;BME280;10759;51.982;9.232;2023-07-31T06:40:56;99646.06;;;16.95;100.00
21203;BME280;10759;51.982;9.232;2023-07-31T06:43:26;99657.53;;;17.23;100.00
21203;BME280;10759;51.982;9.232;2023-07-31T06:45:57;99657.06;;;17.05;100.00
21203;BME280;10759;51.982;9.232;2023-07-31T06:48:27;99659.50;;;16.97;100.00
21203;BME280;10759;51.982;9.232;2023-07-31T06:50:56;99652.91;;;17.12;100.00
21203;BME280;10759;51.982;9.232;2023-07-31T06:53:25;99649.25;;;17.13;100.00
21203;BME280;10759;51.982;9.232;2023-07-31T06:56:02;99648.59;;;17.10;100.00
21203;BME280;10759;51.982;9.232;2023-07-31T06:58:33;99622.72;;;16.94;100.00
21203;BME280;10759;51.982;9.232;2023-07-31T07:05:00;99653.72;;;17.37;100.00
21203;BME280;10759;51.982;9.232;2023-07-31T07:07:30;99653.34;;;17.30;100.00
21203;BME280;10759;51.982;9.232;2023-07-31T07:09:58;99641.28;;;17.34;100.00
21203;BME280;10759;51.982;9.232;2023-07-31T07:12:30;99605.69;;;17.16;100.00
21203;BME280;10759;51.982;9.232;2023-07-31T07:14:58;99651.88;;;17.37;100.00
21203;BME280;10759;51.982;9.232;2023-07-31T07:17:28;99624.75;;;17.15;100.00
21203;BME280;10759;51.982;9.232;2023-07-31T07:24:00;99626.31;;;17.06;100.00
21203;BME280;10759;51.982;9.232;2023-07-31T07:26:31;99624.00;;;17.13;100.00
21203;BME280;10759;51.982;9.232;2023-07-31T07:29:01;99643.75;;;17.26;100.00
21203;BME280;10759;51.982;9.232;2023-07-31T07:31:29;99634.88;;;17.24;100.00
21203;BME280;10759;51.982;9.232;2023-07-31T07:33:57;99641.38;;;17.22;100.00
21203;BME280;10759;51.982;9.232;2023-07-31T07:36:27;99635.56;;;17.15;100.00
21203;BME280;10759;51.982;9.232;2023-07-31T07:38:55;99645.94;;;17.32;100.00
21203;BME280;10759;51.982;9.232;2023-07-31T07:41:25;99645.25;;;17.30;100.00
21203;BME280;10759;51.982;9.232;2023-07-31T07:43:53;99643.00;;;17.24;100.00
21203;BME280;10759;51.982;9.232;2023-07-31T07:46:24;99583.06;;;16.82;100.00
21203;BME280;10759;51.982;9.232;2023-07-31T07:48:52;99624.00;;;17.13;100.00
21203;BME280;10759;51.982;9.232;2023-07-31T07:51:20;99652.31;;;17.20;100.00
21203;BME280;10759;51.982;9.232;2023-07-31T07:53:50;99658.38;;;17.24;100.00
21203;BME280;10759;51.982;9.232;2023-07-31T07:56:20;99651.34;;;17.21;100.00
21203;BME280;10759;51.982;9.232;2023-07-31T07:58:52;99648.75;;;17.20;100.00
21203;BME280;10759;51.982;9.232;2023-07-31T08:01:20;99636.06;;;17.09;100.00
21203;BME280;10759;51.982;9.232;2023-07-31T08:03:49;99657.47;;;17.12;100.00
21203;BME280;10759;51.982;9.232;2023-07-31T08:06:17;99660.38;;;17.33;100.00
21203;BME280;10759;51.982;9.232;2023-07-31T08:08:46;99654.97;;;17.33;100.00
21203;BME280;10759;51.982;9.232;2023-07-31T08:11:14;99653.13;;;17.45;100.00
21203;BME280;10759;51.982;9.232;2023-07-31T08:13:42;99654.75;;;17.58;100.00
21203;BME280;10759;51.982;9.232;2023-07-31T08:16:14;99645.28;;;17.53;100.00
21203;BME280;10759;51.982;9.232;2023-07-31T08:18:42;99637.63;;;17.47;100.00
21203;BME280;10759;51.982;9.232;2023-07-31T08:21:13;99562.03;;;16.86;100.00
21203;BME280;10759;51.982;9.232;2023-07-31T08:23:41;99644.28;;;17.43;100.00
21203;BME280;10759;51.982;9.232;2023-07-31T08:26:14;99629.00;;;17.30;100.00
21203;BME280;10759;51.982;9.232;2023-07-31T08:28:43;99613.16;;;17.13;100.00
21203;BME280;10759;51.982;9.232;2023-07-31T08:31:11;99603.84;;;17.17;100.00
21203;BME280;10759;51.982;9.232;2023-07-31T08:33:41;99624.22;;;17.10;100.00
21203;BME280;10759;51.982;9.232;2023-07-31T08:36:13;99613.50;;;16.97;100.00
21203;BME280;10759;51.982;9.232;2023-07-31T08:38:41;99619.25;;;16.92;100.00
21203;BME280;10759;51.982;9.232;2023-07-31T08:41:09;99577.28;;;16.63;100.00
21203;BME280;10759;51.982;9.232;2023-07-31T08:43:38;99620.75;;;16.97;100.00
21203;BME280;10759;51.982;9.232;2023-07-31T08:46:06;99613.03;;;17.03;100.00
21203;BME280;10759;51.982;9.232;2023-07-31T08:48:35;99603.19;;;17.02;100.00
21203;BME280;10759;51.982;9.232;2023-07-31T08:51:06;99607.88;;;17.11;100.00
21203;BME280;10759;51.982;9.232;2023-07-31T08:53:35;99600.63;;;17.12;100.00
21203;BME280;10759;51.982;9.232;2023-07-31T08:56:04;99594.47;;;17.10;100.00
21203;BME280;10759;51.982;9.232;2023-07-31T08:58:34;99545.19;;;16.82;100.00
21203;BME280;10759;51.982;9.232;2023-07-31T09:01:04;99589.28;;;17.07;100.00
21203;BME280;10759;51.982;9.232;2023-07-31T09:03:34;99592.09;;;17.05;100.00
21203;BME280;10759;51.982;9.232;2023-07-31T09:06:03;99577.47;;;16.97;100.00
21203;BME280;10759;51.982;9.232;2023-07-31T09:08:34;99582.69;;;17.22;100.00
21203;BME280;10759;51.982;9.232;2023-07-31T09:11:05;99586.88;;;17.37;100.00
21203;BME280;10759;51.982;9.232;2023-07-31T09:13:34;99590.13;;;17.43;100.00
21203;BME280;10759;51.982;9.232;2023-07-31T09:23:46;99578.69;;;17.84;100.00
21203;BME280;10759;51.982;9.232;2023-07-31T09:26:29;99576.84;;;18.07;100.00
21203;BME280;10759;51.982;9.232;2023-07-31T09:28:57;99578.69;;;18.07;100.00
21203;BME280;10759;51.982;9.232;2023-07-31T09:31:38;99580.03;;;18.01;100.00
21203;BME280;10759;51.982;9.232;2023-07-31T09:34:07;99563.63;;;18.14;100.00
21203;BME280;10759;51.982;9.232;2023-07-31T09:36:42;99553.59;;;18.37;100.00
21203;BME280;10759;51.982;9.232;2023-07-31T09:39:16;99578.19;;;18.24;100.00
21203;BME280;10759;51.982;9.232;2023-07-31T09:41:53;99582.00;;;18.21;100.00
21203;BME280;10759;51.982;9.232;2023-07-31T09:44:40;99577.81;;;18.06;100.00
21203;BME280;10759;51.982;9.232;2023-07-31T09:47:21;99588.06;;;18.02;100.00
21203;BME280;10759;51.982;9.232;2023-07-31T09:49:54;99576.31;;;18.13;100.00
21203;BME280;10759;51.982;9.232;2023-07-31T09:52:25;99576.69;;;18.09;100.00
21203;BME280;10759;51.982;9.232;2023-07-31T09:55:01;99570.91;;;18.24;100.00
21203;BME280;10759;51.982;9.232;2023-07-31T09:57:30;99570.69;;;18.16;100.00
21203;BME280;10759;51.982;9.232;2023-07-31T09:59:59;99544.69;;;18.02;100.00
21203;BME280;10759;51.982;9.232;2023-07-31T10:02:38;99563.53;;;18.48;100.00
21203;BME280;10759;51.982;9.232;2023-07-31T10:05:16;99556.25;;;18.48;100.00
21203;BME280;10759;51.982;9.232;2023-07-31T10:07:51;99558.22;;;18.57;100.00
21203;BME280;10759;51.982;9.232;2023-07-31T10:10:23;99563.59;;;18.69;100.00
21203;BME280;10759;51.982;9.232;2023-07-31T10:12:53;99489.09;;;18.19;100.00
21203;BME280;10759;51.982;9.232;2023-07-31T10:15:22;99554.94;;;18.75;100.00
21203;BME280;10759;51.982;9.232;2023-07-31T10:17:52;99541.63;;;18.72;100.00
21203;BME280;10759;51.982;9.232;2023-07-31T10:24:23;99525.19;;;18.52;100.00
21203;BME280;10759;51.982;9.232;2023-07-31T10:26:57;99546.56;;;18.78;100.00
21203;BME280;10759;51.982;9.232;2023-07-31T10:29:29;99545.50;;;18.90;100.00
21203;BME280;10759;51.982;9.232;2023-07-31T10:31:58;99496.81;;;18.56;100.00
21203;BME280;10759;51.982;9.232;2023-07-31T10:34:30;99550.47;;;18.85;100.00
21203;BME280;10759;51.982;9.232;2023-07-31T10:37:19;99543.03;;;18.66;100.00
21203;BME280;10759;51.982;9.232;2023-07-31T10:40:00;99537.84;;;18.95;100.00
21203;BME280;10759;51.982;9.232;2023-07-31T10:42:32;99527.25;;;18.92;100.00
21203;BME280;10759;51.982;9.232;2023-07-31T10:45:04;99513.00;;;19.00;100.00
21203;BME280;10759;51.982;9.232;2023-07-31T10:47:37;99534.91;;;19.29;100.00
21203;BME280;10759;51.982;9.232;2023-07-31T10:50:18;99539.16;;;19.22;100.00
21203;BME280;10759;51.982;9.232;2023-07-31T10:52:49;99539.41;;;19.40;100.00
21203;BME280;10759;51.982;9.232;2023-07-31T10:55:29;99502.47;;;19.06;100.00
21203;BME280;10759;51.982;9.232;2023-07-31T10:58:06;99508.72;;;18.65;100.00
21203;BME280;10759;51.982;9.232;2023-07-31T11:00:37;99530.41;;;18.97;100.00
21203;BME280;10759;51.982;9.232;2023-07-31T11:03:07;99518.47;;;18.67;100.00
21203;BME280;10759;51.982;9.232;2023-07-31T11:05:47;99529.59;;;18.53;100.00
21203;BME280;10759;51.982;9.232;2023-07-31T11:08:21;99522.47;;;18.52;100.00
21203;BME280;10759;51.982;9.232;2023-07-31T11:11:05;99512.44;;;18.96;100.00
21203;BME280;10759;51.982;9.232;2023-07-31T11:22:05;99516.00;;;19.48;100.00
21203;BME280;10759;51.982;9.232;2023-07-31T11:24:34;99482.13;;;19.22;100.00
21203;BME280;10759;51.982;9.232;2023-07-31T11:27:07;99526.28;;;19.45;100.00
21203;BME280;10759;51.982;9.232;2023-07-31T11:29:35;99520.75;;;19.04;100.00
21203;BME280;10759;51.982;9.232;2023-07-31T11:32:04;99517.84;;;18.96;100.00
21203;BME280;10759;51.982;9.232;2023-07-31T11:34:51;99528.84;;;19.16;100.00
21203;BME280;10759;51.982;9.232;2023-07-31T11:37:20;99520.97;;;19.43;100.00
21203;BME280;10759;51.982;9.232;2023-07-31T11:39:59;99517.22;;;19.35;100.00
21203;BME280;10759;51.982;9.232;2023-07-31T11:42:38;99503.59;;;19.56;100.00
21203;BME280;10759;51.982;9.232;2023-07-31T11:45:08;99500.53;;;19.49;100.00
21203;BME280;10759;51.982;9.232;2023-07-31T11:47:37;99517.84;;;19.48;100.00
21203;BME280;10759;51.982;9.232;2023-07-31T11:50:09;99506.03;;;19.28;100.00
21203;BME280;10759;51.982;9.232;2023-07-31T11:52:42;99462.03;;;18.82;100.00
21203;BME280;10759;51.982;9.232;2023-07-31T11:55:12;99500.91;;;18.83;100.00
21203;BME280;10759;51.982;9.232;2023-07-31T11:57:43;99506.25;;;18.94;100.00
21203;BME280;10759;51.982;9.232;2023-07-31T12:00:13;99518.91;;;18.84;100.00
21203;BME280;10759;51.982;9.232;2023-07-31T12:02:42;99516.00;;;18.76;100.00
21203;BME280;10759;51.982;9.232;2023-07-31T12:05:11;99484.09;;;18.89;100.00
21203;BME280;10759;51.982;9.232;2023-07-31T12:07:49;99499.53;;;19.40;100.00
21203;BME280;10759;51.982;9.232;2023-07-31T12:10:25;99508.41;;;19.42;100.00
21203;BME280;10759;51.982;9.232;2023-07-31T12:13:00;99510.16;;;19.53;100.00
21203;BME280;10759;51.982;9.232;2023-07-31T12:15:37;99512.19;;;19.30;100.00
21203;BME280;10759;51.982;9.232;2023-07-31T12:18:07;99504.44;;;19.25;100.00
21203;BME280;10759;51.982;9.232;2023-07-31T12:20:44;99480.13;;;19.24;100.00
21203;BME280;10759;51.982;9.232;2023-07-31T12:31:14;99495.72;;;18.80;100.00
21203;BME280;10759;51.982;9.232;2023-07-31T12:33:44;99486.16;;;18.76;100.00
21203;BME280;10759;51.982;9.232;2023-07-31T12:36:15;99446.72;;;18.60;100.00
21203;BME280;10759;51.982;9.232;2023-07-31T12:38:44;99412.78;;;18.45;100.00
21203;BME280;10759;51.982;9.232;2023-07-31T12:41:13;99479.56;;;18.99;100.00
21203;BME280;10759;51.982;9.232;2023-07-31T12:43:43;99478.31;;;19.34;100.00
21203;BME280;10759;51.982;9.232;2023-07-31T12:46:13;99476.50;;;19.35;100.00
21203;BME280;10759;51.982;9.232;2023-07-31T12:48:41;99481.44;;;19.29;100.00
21203;BME280;10759;51.982;9.232;2023-07-31T12:51:10;99478.06;;;19.37;100.00
21203;BME280;10759;51.982;9.232;2023-07-31T12:53:38;99469.19;;;19.35;100.00
21203;BME280;10759;51.982;9.232;2023-07-31T12:56:06;99473.69;;;19.56;100.00
21203;BME280;10759;51.982;9.232;2023-07-31T12:58:34;99474.72;;;19.55;100.00
21203;BME280;10759;51.982;9.232;2023-07-31T13:01:02;99484.72;;;19.64;100.00
21203;BME280;10759;51.982;9.232;2023-07-31T13:03:33;99466.47;;;19.35;100.00
21203;BME280;10759;51.982;9.232;2023-07-31T13:06:01;99473.72;;;19.25;100.00
21203;BME280;10759;51.982;9.232;2023-07-31T13:08:29;99470.91;;;19.36;100.00
21203;BME280;10759;51.982;9.232;2023-07-31T13:10:58;99473.66;;;19.46;100.00
21203;BME280;10759;51.982;9.232;2023-07-31T13:13:26;99480.50;;;19.71;100.00
21203;BME280;10759;51.982;9.232;2023-07-31T13:15:56;99468.72;;;19.61;100.00
21203;BME280;10759;51.982;9.232;2023-07-31T13:18:24;99391.69;;;19.31;100.00
21203;BME280;10759;51.982;9.232;2023-07-31T13:20:54;99469.81;;;19.48;100.00
21203;BME280;10759;51.982;9.232;2023-07-31T13:23:22;99471.72;;;19.27;100.00
21203;BME280;10759;51.982;9.232;2023-07-31T13:25:51;99467.34;;;19.36;100.00
21203;BME280;10759;51.982;9.232;2023-07-31T13:28:19;99475.25;;;19.18;100.00
21203;BME280;10759;51.982;9.232;2023-07-31T13:30:47;99482.13;;;19.22;100.00
21203;BME280;10759;51.982;9.232;2023-07-31T13:33:15;99475.75;;;19.33;100.00
21203;BME280;10759;51.982;9.232;2023-07-31T13:36:03;99484.69;;;19.44;100.00
21203;BME280;10759;51.982;9.232;2023-07-31T13:38:31;99486.44;;;19.55;100.00
21203;BME280;10759;51.982;9.232;2023-07-31T13:40:59;99486.38;;;19.15;100.00
21203;BME280;10759;51.982;9.232;2023-07-31T13:43:27;99482.09;;;18.91;100.00